createdAt,value
2017-12-20T00:00:24.842Z,95.84
2017-12-20T00:01:24.999Z,96.12
2017-12-20T00:03:18.921Z,96.17
2017-12-20T00:04:18.820Z,96.31
2017-12-20T00:06:11.774Z,95.93
2017-12-20T00:07:10.922Z,95.69
2017-12-20T00:09:04.493Z,95.60
2017-12-20T00:10:03.701Z,95.60
2017-12-20T00:11:57.207Z,95.65
2017-12-20T00:12:56.899Z,95.74
2017-12-20T00:14:48.272Z,95.45
2017-12-20T00:15:48.743Z,95.74
2017-12-20T00:17:42.393Z,95.65
2017-12-20T00:18:42.552Z,95.36
2017-12-20T00:20:34.773Z,96.03
2017-12-20T00:21:35.718Z,95.98
2017-12-20T00:23:32.437Z,95.74
2017-12-20T00:24:30.610Z,95.31
2017-12-20T00:26:22.905Z,95.65
2017-12-20T00:27:20.619Z,95.55
2017-12-20T00:29:14.725Z,95.55
2017-12-20T00:30:14.788Z,95.69
2017-12-20T00:32:08.384Z,95.69
2017-12-20T00:33:07.283Z,95.84
2017-12-20T00:34:59.769Z,95.65
2017-12-20T00:35:59.892Z,95.79
2017-12-20T00:37:54.600Z,95.60
2017-12-20T00:38:53.824Z,95.65
2017-12-20T00:40:46.555Z,95.65
2017-12-20T00:41:47.500Z,95.74
2017-12-20T00:43:39.345Z,95.84
2017-12-20T00:44:40.307Z,95.74
2017-12-20T00:46:33.897Z,95.69
2017-12-20T00:47:34.424Z,95.69
2017-12-20T00:49:26.592Z,95.74
2017-12-20T00:50:26.144Z,95.69
2017-12-20T00:52:20.279Z,95.69
2017-12-20T00:53:20.313Z,95.65
2017-12-20T00:55:13.412Z,95.84
2017-12-20T00:56:12.725Z,95.74
2017-12-20T00:58:07.163Z,95.74
2017-12-20T00:59:05.880Z,95.74
2017-12-20T01:01:00.653Z,96.03
2017-12-20T01:01:59.331Z,95.65
2017-12-20T01:03:52.457Z,95.65
2017-12-20T01:06:14.171Z,95.84
2017-12-20T01:07:14.791Z,95.84
2017-12-20T01:09:09.641Z,95.84
2017-12-20T01:10:08.469Z,95.74
2017-12-20T01:12:01.363Z,95.93
2017-12-20T01:13:01.990Z,96.03
2017-12-20T01:14:54.028Z,95.84
2017-12-20T01:15:54.499Z,95.84
2017-12-20T01:17:46.417Z,95.84
2017-12-20T01:18:46.414Z,95.84
2017-12-20T01:20:40.539Z,96.12
2017-12-20T01:21:40.605Z,95.65
2017-12-20T01:23:34.230Z,95.65
2017-12-20T01:24:35.429Z,95.60
2017-12-20T01:26:30.172Z,95.84
2017-12-20T01:27:27.234Z,95.69
2017-12-20T01:29:20.394Z,95.69
2017-12-20T01:30:18.872Z,96.03
2017-12-20T01:32:14.759Z,95.60
2017-12-20T01:33:12.005Z,95.74
2017-12-20T01:35:04.992Z,95.31
2017-12-20T01:36:05.531Z,95.84
2017-12-20T01:37:58.525Z,95.74
2017-12-20T01:38:57.569Z,95.74
2017-12-20T01:40:51.277Z,95.65
2017-12-20T01:41:52.060Z,95.65
2017-12-20T01:43:44.146Z,95.65
2017-12-20T01:44:45.550Z,95.60
2017-12-20T01:46:37.918Z,95.74
2017-12-20T01:47:37.735Z,95.74
2017-12-20T01:49:32.006Z,95.74
2017-12-20T01:50:31.967Z,95.84
2017-12-20T01:52:25.472Z,95.74
2017-12-20T01:53:25.768Z,96.03
2017-12-20T01:55:19.062Z,95.60
2017-12-20T01:56:17.820Z,96.03
2017-12-20T01:58:13.304Z,95.60
2017-12-20T01:59:13.144Z,95.93
2017-12-20T02:01:07.623Z,95.60
2017-12-20T02:02:07.295Z,96.12
2017-12-20T02:04:01.181Z,95.74
2017-12-20T02:05:01.413Z,95.74
2017-12-20T02:06:55.606Z,95.55
2017-12-20T02:07:55.075Z,95.74
2017-12-20T02:09:50.585Z,95.65
2017-12-20T02:10:48.943Z,95.55
2017-12-20T02:12:43.630Z,95.65
2017-12-20T02:13:43.190Z,95.93
2017-12-20T02:15:36.382Z,95.50
2017-12-20T02:16:36.545Z,95.69
2017-12-20T02:18:29.195Z,95.60
2017-12-20T02:19:28.906Z,95.65
2017-12-20T02:21:22.960Z,95.79
2017-12-20T02:22:21.151Z,95.79
2017-12-20T02:24:14.265Z,95.74
2017-12-20T02:25:14.410Z,95.60
2017-12-20T02:27:09.108Z,95.60
2017-12-20T02:28:07.153Z,95.79
2017-12-20T02:30:02.348Z,95.84
2017-12-20T02:31:01.433Z,96.07
2017-12-20T02:32:57.528Z,95.65
2017-12-20T02:33:54.080Z,96.03
2017-12-20T02:35:48.649Z,95.69
2017-12-20T02:36:47.168Z,95.65
2017-12-20T02:38:38.795Z,95.84
2017-12-20T02:39:40.009Z,96.03
2017-12-20T02:41:33.435Z,95.84
2017-12-20T02:42:31.438Z,95.74
2017-12-20T02:44:24.769Z,95.69
2017-12-20T02:45:25.127Z,95.93
2017-12-20T02:47:17.992Z,95.65
2017-12-20T02:48:17.818Z,95.84
2017-12-20T02:50:12.535Z,95.98
2017-12-20T02:51:12.650Z,96.03
2017-12-20T02:53:04.437Z,96.07
2017-12-20T02:54:04.860Z,95.65
2017-12-20T02:55:58.044Z,96.03
2017-12-20T02:56:58.335Z,95.50
2017-12-20T02:58:51.503Z,96.12
2017-12-20T02:59:51.517Z,96.12
2017-12-20T03:01:44.408Z,95.74
2017-12-20T03:02:43.186Z,96.03
2017-12-20T03:04:37.108Z,95.93
2017-12-20T03:05:37.932Z,95.65
2017-12-20T03:07:31.544Z,96.07
2017-12-20T03:08:31.204Z,95.84
2017-12-20T03:10:25.398Z,95.74
2017-12-20T03:11:24.656Z,95.84
2017-12-20T03:13:17.640Z,95.79
2017-12-20T03:14:18.116Z,95.60
2017-12-20T03:16:11.800Z,96.03
2017-12-20T03:17:12.001Z,95.84
2017-12-20T03:19:05.692Z,96.03
2017-12-20T03:20:04.630Z,95.69
2017-12-20T03:21:58.860Z,95.60
2017-12-20T03:22:59.123Z,95.88
2017-12-20T03:24:55.436Z,95.93
2017-12-20T03:25:53.930Z,96.03
2017-12-20T03:27:45.596Z,95.88
2017-12-20T03:28:46.170Z,95.93
2017-12-20T03:30:40.123Z,95.65
2017-12-20T03:31:40.267Z,95.84
2017-12-20T03:33:32.553Z,95.84
2017-12-20T03:34:34.155Z,95.84
2017-12-20T03:36:24.681Z,95.74
2017-12-20T03:37:25.840Z,95.93
2017-12-20T03:39:17.990Z,95.65
2017-12-20T03:40:18.626Z,95.84
2017-12-20T03:42:10.595Z,95.84
2017-12-20T03:48:14.620Z,95.60
2017-12-20T03:49:15.640Z,95.79
2017-12-20T03:51:09.069Z,95.60
2017-12-20T03:52:08.334Z,95.98
2017-12-20T03:54:00.867Z,95.84
2017-12-20T03:54:59.993Z,96.07
2017-12-20T03:56:53.835Z,95.69
2017-12-20T03:57:54.997Z,95.84
2017-12-20T03:59:46.640Z,95.55
2017-12-20T04:00:47.535Z,95.69
2017-12-20T04:02:40.409Z,95.84
2017-12-20T04:03:40.363Z,95.93
2017-12-20T04:05:32.647Z,96.03
2017-12-20T04:06:33.756Z,95.79
2017-12-20T04:08:25.440Z,95.60
2017-12-20T04:09:27.012Z,95.84
2017-12-20T04:11:19.834Z,96.12
2017-12-20T04:12:19.797Z,95.79
2017-12-20T04:14:12.086Z,96.03
2017-12-20T04:15:10.869Z,95.98
2017-12-20T04:17:04.805Z,95.55
2017-12-20T04:18:03.879Z,95.69
2017-12-20T04:19:57.723Z,95.69
2017-12-20T04:20:56.713Z,95.65
2017-12-20T04:22:51.329Z,95.74
2017-12-20T04:23:52.329Z,95.45
2017-12-20T04:25:45.631Z,96.12
2017-12-20T04:26:44.763Z,95.65
2017-12-20T04:28:41.927Z,95.65
2017-12-20T04:29:38.602Z,95.60
2017-12-20T04:31:31.986Z,95.60
2017-12-20T04:32:34.060Z,95.93
2017-12-20T04:34:26.944Z,95.65
2017-12-20T04:35:25.007Z,95.69
2017-12-20T04:37:18.415Z,95.74
2017-12-20T04:38:21.293Z,95.45
2017-12-20T04:40:12.172Z,95.84
2017-12-20T04:41:12.602Z,95.93
2017-12-20T04:43:06.233Z,95.84
2017-12-20T04:44:05.932Z,95.65
2017-12-20T04:45:59.220Z,95.65
2017-12-20T04:46:58.921Z,96.03
2017-12-20T04:48:57.031Z,95.65
2017-12-20T04:49:58.021Z,95.74
2017-12-20T04:51:51.684Z,95.93
2017-12-20T04:52:52.758Z,95.84
2017-12-20T04:54:44.911Z,95.93
2017-12-20T04:55:45.419Z,95.79
2017-12-20T04:57:37.669Z,95.84
2017-12-20T04:58:37.855Z,95.93
2017-12-20T05:00:30.181Z,95.84
2017-12-20T05:01:31.004Z,95.65
2017-12-20T05:03:23.974Z,95.93
2017-12-20T05:04:24.383Z,95.84
2017-12-20T05:06:19.044Z,96.03
2017-12-20T05:07:20.091Z,95.84
2017-12-20T05:09:13.524Z,95.45
2017-12-20T05:10:12.639Z,95.74
2017-12-20T05:12:06.282Z,95.65
2017-12-20T05:13:06.509Z,95.69
2017-12-20T05:14:58.519Z,95.65
2017-12-20T05:15:58.708Z,96.03
2017-12-20T05:17:51.883Z,95.69
2017-12-20T05:18:51.320Z,95.84
2017-12-20T05:20:44.154Z,96.03
2017-12-20T05:21:45.773Z,95.88
2017-12-20T05:23:37.752Z,96.12
2017-12-20T05:24:37.486Z,95.45
2017-12-20T05:26:30.376Z,95.45
2017-12-20T05:27:30.917Z,95.74
2017-12-20T05:29:23.069Z,95.65
2017-12-20T05:30:23.734Z,96.12
2017-12-20T05:32:16.817Z,95.65
2017-12-20T05:33:17.969Z,95.65
2017-12-20T05:35:10.973Z,96.07
2017-12-20T05:36:09.977Z,95.60
2017-12-20T05:38:03.994Z,95.98
2017-12-20T05:39:04.030Z,95.74
2017-12-20T05:40:56.470Z,95.93
2017-12-20T05:41:56.530Z,95.84
2017-12-20T05:43:51.183Z,95.84
2017-12-20T05:44:50.819Z,96.12
2017-12-20T05:46:44.836Z,95.65
2017-12-20T05:47:45.386Z,95.65
2017-12-20T05:49:39.718Z,95.65
2017-12-20T05:50:39.620Z,95.36
2017-12-20T05:52:32.667Z,95.69
2017-12-20T05:53:33.255Z,96.03
2017-12-20T05:55:25.189Z,96.03
2017-12-20T05:56:25.581Z,95.74
2017-12-20T05:58:18.902Z,95.45
2017-12-20T06:00:39.525Z,95.69
2017-12-20T06:01:40.894Z,96.12
2017-12-20T06:03:32.433Z,95.65
2017-12-20T06:04:32.594Z,95.84
2017-12-20T06:06:25.752Z,95.74
2017-12-20T06:07:26.489Z,95.60
2017-12-20T06:09:19.183Z,95.65
2017-12-20T06:10:19.422Z,95.60
2017-12-20T06:12:12.691Z,95.84
2017-12-20T06:13:13.031Z,95.93
2017-12-20T06:15:04.678Z,95.69
2017-12-20T06:16:06.063Z,95.74
2017-12-20T06:17:57.769Z,95.84
2017-12-20T06:18:58.191Z,95.84
2017-12-20T06:20:51.270Z,95.84
2017-12-20T06:21:51.878Z,95.84
2017-12-20T06:23:44.276Z,96.03
2017-12-20T06:24:44.143Z,95.69
2017-12-20T06:26:36.528Z,95.74
2017-12-20T06:27:37.956Z,95.69
2017-12-20T06:29:29.848Z,95.98
2017-12-20T06:30:33.033Z,95.98
2017-12-20T06:32:22.180Z,95.60
2017-12-20T06:33:22.614Z,95.60
2017-12-20T06:35:15.381Z,95.74
2017-12-20T06:36:16.523Z,95.84
2017-12-20T06:38:09.042Z,96.03
2017-12-20T06:41:01.958Z,95.65
2017-12-20T06:42:02.686Z,95.84
2017-12-20T06:43:54.979Z,95.60
2017-12-20T06:44:55.297Z,95.93
2017-12-20T06:46:47.574Z,95.65
2017-12-20T06:47:47.956Z,95.98
2017-12-20T06:49:40.290Z,96.03
2017-12-20T06:50:40.703Z,95.74
2017-12-20T06:52:34.421Z,95.65
2017-12-20T06:53:33.923Z,96.03
2017-12-20T06:55:26.066Z,95.74
2017-12-20T06:56:26.175Z,95.93
2017-12-20T06:58:18.755Z,95.69
2017-12-20T06:59:18.449Z,95.84
2017-12-20T07:01:11.199Z,95.84
2017-12-20T07:02:11.652Z,95.84
2017-12-20T07:04:05.678Z,95.84
2017-12-20T07:05:05.310Z,95.65
2017-12-20T07:06:57.970Z,95.84
2017-12-20T07:07:58.621Z,95.65
2017-12-20T07:09:51.734Z,95.65
2017-12-20T07:10:51.427Z,95.79
2017-12-20T07:12:44.800Z,95.60
2017-12-20T07:13:44.665Z,95.65
2017-12-20T07:15:37.093Z,95.93
2017-12-20T07:16:36.006Z,95.60
2017-12-20T07:18:30.455Z,95.84
2017-12-20T07:19:29.769Z,95.79
2017-12-20T07:21:21.979Z,95.65
2017-12-20T07:22:22.951Z,95.65
2017-12-20T07:24:15.414Z,96.07
2017-12-20T07:25:16.173Z,96.03
2017-12-20T07:27:08.183Z,96.12
2017-12-20T07:28:09.630Z,95.65
2017-12-20T07:30:01.030Z,95.65
2017-12-20T07:31:01.862Z,95.93
2017-12-20T07:32:54.739Z,95.69
2017-12-20T07:33:56.469Z,95.74
2017-12-20T07:35:48.432Z,95.69
2017-12-20T07:36:48.316Z,96.03
2017-12-20T07:38:40.486Z,95.55
2017-12-20T07:39:41.669Z,95.55
2017-12-20T07:41:33.479Z,95.65
2017-12-20T07:42:33.711Z,96.12
2017-12-20T07:44:26.120Z,95.74
2017-12-20T07:45:27.141Z,95.84
2017-12-20T07:47:19.553Z,95.55
2017-12-20T07:48:19.953Z,95.65
2017-12-20T07:50:11.974Z,95.93
2017-12-20T07:51:13.577Z,95.93
2017-12-20T07:53:04.584Z,95.65
2017-12-20T07:54:06.395Z,95.45
2017-12-20T07:55:58.711Z,95.93
2017-12-20T07:56:59.262Z,95.74
2017-12-20T07:58:50.969Z,95.65
2017-12-20T07:59:52.160Z,95.93
2017-12-20T08:01:43.299Z,95.93
2017-12-20T08:02:43.548Z,95.93
2017-12-20T08:04:37.622Z,95.93
2017-12-20T08:05:37.931Z,95.84
2017-12-20T08:07:29.776Z,95.41
2017-12-20T08:08:30.750Z,95.45
2017-12-20T08:10:23.651Z,95.93
2017-12-20T08:11:24.410Z,95.93
2017-12-20T08:13:17.219Z,95.93
2017-12-20T08:14:17.035Z,95.88
2017-12-20T08:16:09.438Z,95.41
2017-12-20T08:17:10.743Z,95.45
2017-12-20T08:19:03.432Z,95.36
2017-12-20T08:20:03.591Z,95.45
2017-12-20T08:21:55.702Z,95.45
2017-12-20T08:22:57.168Z,95.45
2017-12-20T08:24:49.096Z,95.74
2017-12-20T08:25:50.342Z,95.45
2017-12-20T08:27:41.334Z,95.45
2017-12-20T08:28:43.811Z,95.45
2017-12-20T08:30:34.552Z,95.65
2017-12-20T08:31:35.202Z,95.55
2017-12-20T08:33:27.011Z,95.65
2017-12-20T08:34:27.708Z,95.65
2017-12-20T08:36:21.583Z,95.55
2017-12-20T08:37:22.787Z,95.65
2017-12-20T08:39:14.893Z,95.65
2017-12-20T08:40:15.872Z,95.31
2017-12-20T08:42:07.475Z,95.45
2017-12-20T08:43:06.980Z,95.36
2017-12-20T08:45:02.081Z,95.45
2017-12-20T08:46:02.485Z,95.45
2017-12-20T08:47:54.621Z,95.36
2017-12-20T08:48:55.197Z,95.26
2017-12-20T08:50:47.380Z,95.26
2017-12-20T08:51:47.386Z,95.36
2017-12-20T08:53:40.459Z,95.26
2017-12-20T08:54:40.361Z,95.26
2017-12-20T08:56:34.192Z,95.55
2017-12-20T08:57:34.100Z,95.45
2017-12-20T08:59:26.683Z,95.45
2017-12-20T09:00:27.783Z,95.45
2017-12-20T09:02:20.065Z,95.45
2017-12-20T09:03:20.695Z,95.36
2017-12-20T09:05:12.129Z,95.36
2017-12-20T09:06:12.699Z,95.26
2017-12-20T09:08:05.227Z,95.36
2017-12-20T09:09:06.051Z,95.26
2017-12-20T09:10:58.393Z,95.17
2017-12-20T09:11:58.459Z,95.36
2017-12-20T09:13:51.025Z,95.26
2017-12-20T09:14:50.945Z,95.55
2017-12-20T09:16:43.871Z,95.17
2017-12-20T09:17:43.656Z,95.45
2017-12-20T09:19:37.609Z,95.36
2017-12-20T09:20:37.721Z,95.55
2017-12-20T09:22:32.079Z,95.45
2017-12-20T09:23:32.386Z,95.26
2017-12-20T09:25:24.751Z,95.45
2017-12-20T09:26:24.654Z,95.45
2017-12-20T09:28:18.421Z,95.17
2017-12-20T09:29:18.024Z,95.26
2017-12-20T09:31:15.188Z,95.17
2017-12-20T09:32:15.541Z,95.55
2017-12-20T09:34:07.187Z,95.45
2017-12-20T09:35:09.109Z,95.26
2017-12-20T09:36:59.181Z,95.17
2017-12-20T09:38:00.079Z,95.55
2017-12-20T09:39:52.369Z,95.55
2017-12-20T09:40:52.667Z,95.17
2017-12-20T09:42:46.548Z,95.36
2017-12-20T09:43:47.486Z,95.26
2017-12-20T09:45:39.003Z,95.26
2017-12-20T09:46:40.010Z,95.45
2017-12-20T09:48:31.660Z,95.45
2017-12-20T09:49:32.571Z,95.45
2017-12-20T09:51:24.228Z,95.45
2017-12-20T09:52:24.250Z,95.45
2017-12-20T09:54:18.348Z,95.45
2017-12-20T09:55:17.920Z,95.45
2017-12-20T09:57:09.590Z,95.26
2017-12-20T09:58:11.590Z,95.17
2017-12-20T10:00:02.908Z,94.89
2017-12-20T10:01:03.468Z,94.79
2017-12-20T10:02:55.825Z,95.17
2017-12-20T10:03:56.697Z,95.26
2017-12-20T10:05:49.272Z,94.89
2017-12-20T10:06:50.143Z,94.79
2017-12-20T10:08:41.777Z,95.07
2017-12-20T10:09:42.719Z,94.98
2017-12-20T10:11:35.361Z,95.17
2017-12-20T10:12:36.000Z,95.17
2017-12-20T10:14:27.400Z,95.07
2017-12-20T10:15:27.758Z,95.17
2017-12-20T10:17:21.100Z,94.98
2017-12-20T10:18:20.562Z,94.98
2017-12-20T10:20:13.968Z,95.17
2017-12-20T10:21:13.896Z,94.89
2017-12-20T10:23:06.331Z,94.89
2017-12-20T10:24:06.101Z,94.70
2017-12-20T10:26:00.124Z,94.89
2017-12-20T10:27:00.297Z,94.98
2017-12-20T10:28:52.113Z,94.98
2017-12-20T10:29:53.229Z,94.60
2017-12-20T10:31:45.731Z,94.98
2017-12-20T10:32:45.980Z,94.98
2017-12-20T10:34:37.529Z,95.17
2017-12-20T10:35:38.842Z,94.98
2017-12-20T10:37:30.266Z,94.98
2017-12-20T10:38:30.396Z,94.98
2017-12-20T10:40:23.021Z,94.98
2017-12-20T10:41:22.901Z,94.98
2017-12-20T10:43:16.953Z,94.70
2017-12-20T10:44:17.556Z,95.17
2017-12-20T10:46:09.775Z,94.51
2017-12-20T10:47:09.376Z,94.89
2017-12-20T10:49:02.880Z,94.79
2017-12-20T10:50:03.318Z,94.89
2017-12-20T10:52:02.526Z,95.26
2017-12-20T10:53:02.646Z,94.89
2017-12-20T10:54:58.230Z,94.32
2017-12-20T10:57:09.513Z,94.79
2017-12-20T10:59:29.606Z,94.70
2017-12-20T11:00:29.792Z,94.51
2017-12-20T11:02:22.934Z,94.60
2017-12-20T11:03:23.800Z,94.60
2017-12-20T11:05:15.609Z,94.79
2017-12-20T11:06:16.500Z,94.89
2017-12-20T11:08:09.185Z,94.60
2017-12-20T11:09:08.718Z,94.51
2017-12-20T11:11:01.842Z,94.51
2017-12-20T11:12:02.405Z,94.51
2017-12-20T11:13:54.326Z,94.60
2017-12-20T11:14:55.383Z,94.89
2017-12-20T11:16:47.999Z,94.60
2017-12-20T11:17:48.760Z,94.23
2017-12-20T11:19:41.489Z,94.60
2017-12-20T11:20:41.310Z,94.60
2017-12-20T11:22:35.257Z,95.55
2017-12-20T11:23:35.289Z,94.70
2017-12-20T11:25:27.360Z,94.60
2017-12-20T11:26:28.233Z,94.74
2017-12-20T11:28:20.137Z,94.51
2017-12-20T11:29:19.771Z,94.70
2017-12-20T11:31:14.263Z,94.60
2017-12-20T11:32:14.400Z,94.79
2017-12-20T11:34:05.048Z,94.32
2017-12-20T11:35:06.479Z,94.51
2017-12-20T11:36:58.893Z,94.56
2017-12-20T11:37:59.822Z,94.89
2017-12-20T11:39:50.942Z,94.89
2017-12-20T11:40:51.702Z,94.65
2017-12-20T11:42:43.604Z,94.46
2017-12-20T11:43:45.126Z,94.51
2017-12-20T11:45:36.299Z,94.56
2017-12-20T11:46:37.351Z,94.84
2017-12-20T11:48:29.084Z,94.65
2017-12-20T11:49:29.981Z,94.56
2017-12-20T11:51:22.299Z,95.41
2017-12-20T11:52:22.166Z,95.22
2017-12-20T11:54:14.907Z,95.50
2017-12-20T11:55:15.793Z,94.84
2017-12-20T11:57:07.361Z,94.84
2017-12-20T11:58:07.708Z,95.31
2017-12-20T12:00:00.592Z,94.74
2017-12-20T12:01:00.610Z,94.84
2017-12-20T12:02:53.626Z,95.22
2017-12-20T12:03:53.352Z,94.56
2017-12-20T12:05:46.036Z,95.22
2017-12-20T12:06:46.039Z,94.65
2017-12-20T12:08:39.160Z,94.56
2017-12-20T12:09:38.083Z,95.50
2017-12-20T12:11:32.195Z,94.65
2017-12-20T12:12:31.785Z,94.46
2017-12-20T12:14:23.772Z,94.74
2017-12-20T12:15:24.506Z,94.84
2017-12-20T12:17:16.320Z,94.56
2017-12-20T12:18:17.087Z,94.74
2017-12-20T12:20:09.022Z,94.56
2017-12-20T12:21:10.417Z,94.65
2017-12-20T12:23:01.891Z,94.56
2017-12-20T12:24:03.160Z,94.65
2017-12-20T12:25:56.408Z,94.65
2017-12-20T12:26:55.732Z,94.74
2017-12-20T12:28:50.848Z,94.74
2017-12-20T12:29:50.379Z,95.03
2017-12-20T12:31:42.164Z,95.03
2017-12-20T12:32:44.066Z,95.12
2017-12-20T12:34:35.457Z,95.12
2017-12-20T12:35:36.415Z,94.93
2017-12-20T12:37:30.353Z,95.12
2017-12-20T12:38:29.535Z,95.03
2017-12-20T12:40:26.833Z,94.93
2017-12-20T12:43:18.149Z,95.03
2017-12-20T12:44:17.622Z,94.84
2017-12-20T12:46:08.191Z,95.50
2017-12-20T12:47:10.210Z,95.50
2017-12-20T12:49:00.138Z,95.60
2017-12-20T12:50:00.337Z,95.22
2017-12-20T12:51:54.412Z,94.93
2017-12-20T12:52:54.518Z,95.03
2017-12-20T12:54:46.895Z,95.41
2017-12-20T12:55:46.546Z,94.93
2017-12-20T12:57:40.799Z,95.12
2017-12-20T12:58:41.312Z,95.03
2017-12-20T13:00:33.678Z,94.65
2017-12-20T13:01:33.887Z,95.03
2017-12-20T13:03:26.440Z,95.03
2017-12-20T13:04:27.341Z,94.93
2017-12-20T13:06:19.237Z,95.12
2017-12-20T13:07:18.861Z,94.93
2017-12-20T13:09:12.124Z,95.03
2017-12-20T13:10:12.423Z,95.03
2017-12-20T13:12:05.555Z,95.03
2017-12-20T13:13:04.572Z,95.03
2017-12-20T13:14:57.673Z,95.03
2017-12-20T13:15:58.192Z,95.22
2017-12-20T13:17:50.768Z,95.03
2017-12-20T13:18:50.768Z,94.84
2017-12-20T13:20:42.911Z,95.12
2017-12-20T13:21:43.571Z,95.50
2017-12-20T13:23:35.807Z,95.50
2017-12-20T13:24:37.888Z,95.41
2017-12-20T13:26:30.040Z,94.93
2017-12-20T13:27:30.387Z,95.03
2017-12-20T13:29:21.806Z,95.12
2017-12-20T13:30:22.252Z,94.84
2017-12-20T13:32:14.935Z,95.03
2017-12-20T13:33:14.911Z,95.12
2017-12-20T13:35:06.572Z,95.22
2017-12-20T13:36:08.120Z,95.03
2017-12-20T13:38:00.233Z,94.93
2017-12-20T13:38:59.712Z,95.03
2017-12-20T13:40:52.478Z,94.74
2017-12-20T13:41:52.351Z,94.84
2017-12-20T13:43:44.456Z,95.03
2017-12-20T13:44:44.917Z,94.93
2017-12-20T13:46:37.370Z,95.03
2017-12-20T13:47:37.129Z,95.03
2017-12-20T13:49:30.076Z,95.22
2017-12-20T13:50:30.277Z,95.22
2017-12-20T13:52:22.480Z,95.12
2017-12-20T13:53:23.037Z,95.03
2017-12-20T13:55:15.170Z,95.03
2017-12-20T13:56:16.058Z,95.03
2017-12-20T13:58:08.073Z,94.65
2017-12-20T13:59:08.830Z,95.22
2017-12-20T14:01:03.879Z,95.03
2017-12-20T14:02:03.888Z,95.03
2017-12-20T14:03:56.545Z,94.74
2017-12-20T14:04:56.011Z,94.93
2017-12-20T14:06:51.489Z,94.65
2017-12-20T14:07:52.673Z,95.12
2017-12-20T14:09:44.113Z,94.65
2017-12-20T14:10:44.342Z,95.22
2017-12-20T14:12:37.164Z,94.65
2017-12-20T14:13:36.696Z,95.22
2017-12-20T14:15:29.976Z,95.12
2017-12-20T14:16:30.880Z,95.22
2017-12-20T14:18:23.928Z,95.03
2017-12-20T14:19:24.023Z,95.22
2017-12-20T14:21:21.793Z,95.03
2017-12-20T14:22:22.651Z,95.12
2017-12-20T14:24:15.183Z,95.03
2017-12-20T14:25:14.862Z,94.93
2017-12-20T14:27:09.126Z,95.12
2017-12-20T14:28:10.171Z,95.03
2017-12-20T14:30:01.920Z,95.22
2017-12-20T14:31:02.245Z,94.93
2017-12-20T14:32:54.832Z,94.65
2017-12-20T14:33:54.528Z,95.03
2017-12-20T14:35:49.100Z,94.84
2017-12-20T14:36:47.573Z,95.03
2017-12-20T14:38:39.433Z,95.22
2017-12-20T14:39:39.506Z,95.03
2017-12-20T14:41:32.981Z,94.84
2017-12-20T14:42:33.549Z,94.93
2017-12-20T14:44:24.850Z,94.65
2017-12-20T14:45:25.810Z,94.56
2017-12-20T14:47:18.326Z,94.56
2017-12-20T14:48:18.837Z,94.56
2017-12-20T14:50:10.487Z,95.41
2017-12-20T14:51:11.080Z,94.84
2017-12-20T14:53:03.347Z,94.93
2017-12-20T14:54:03.856Z,94.93
2017-12-20T14:55:56.039Z,95.12
2017-12-20T14:56:57.506Z,95.03
2017-12-20T14:58:48.589Z,95.12
2017-12-20T14:59:48.957Z,94.93
2017-12-20T15:01:42.904Z,94.65
2017-12-20T15:02:44.070Z,95.22
2017-12-20T15:04:35.853Z,94.93
2017-12-20T15:05:36.354Z,94.65
2017-12-20T15:07:29.285Z,94.65
2017-12-20T15:08:29.000Z,94.93
2017-12-20T15:10:23.671Z,95.03
2017-12-20T15:11:20.523Z,94.93
2017-12-20T15:13:13.811Z,95.22
2017-12-20T15:14:14.761Z,95.31
2017-12-20T15:16:08.016Z,95.12
2017-12-20T15:17:08.073Z,95.12
2017-12-20T15:19:00.761Z,94.74
2017-12-20T15:20:00.947Z,94.65
2017-12-20T15:21:52.622Z,95.60
2017-12-20T15:22:52.273Z,94.84
2017-12-20T15:24:45.590Z,95.03
2017-12-20T15:25:46.825Z,94.93
2017-12-20T15:27:37.837Z,95.22
2017-12-20T15:28:38.579Z,95.31
2017-12-20T15:30:30.245Z,94.93
2017-12-20T15:31:32.006Z,95.31
2017-12-20T15:33:23.589Z,94.93
2017-12-20T15:34:24.114Z,95.22
2017-12-20T15:36:16.219Z,94.84
2017-12-20T15:37:16.761Z,95.03
2017-12-20T15:39:09.368Z,94.84
2017-12-20T15:40:12.776Z,95.41
2017-12-20T15:42:01.411Z,95.31
2017-12-20T15:43:03.021Z,95.50
2017-12-20T15:44:55.532Z,95.03
2017-12-20T15:45:55.976Z,95.22
2017-12-20T15:47:47.557Z,95.22
2017-12-20T15:48:49.010Z,95.03
2017-12-20T15:50:41.392Z,95.12
2017-12-20T15:51:40.823Z,95.12
2017-12-20T15:53:48.194Z,95.03
2017-12-20T15:54:49.136Z,94.93
2017-12-20T15:56:40.238Z,94.93
2017-12-20T15:57:41.530Z,95.50
2017-12-20T15:59:33.680Z,95.69
2017-12-20T16:00:35.823Z,95.98
2017-12-20T16:02:28.937Z,94.84
2017-12-20T16:03:27.835Z,95.50
2017-12-20T16:05:21.368Z,95.41
2017-12-20T16:06:21.436Z,95.50
2017-12-20T16:08:15.310Z,95.50
2017-12-20T16:09:15.146Z,95.41
2017-12-20T16:11:07.583Z,94.84
2017-12-20T16:12:08.270Z,94.84
2017-12-20T16:14:04.292Z,95.03
2017-12-20T16:15:02.155Z,94.65
2017-12-20T16:16:52.232Z,94.93
2017-12-20T16:17:55.256Z,94.93
2017-12-20T16:19:46.742Z,94.65
2017-12-20T16:20:45.985Z,94.84
2017-12-20T16:22:38.746Z,95.03
2017-12-20T16:23:39.724Z,94.65
2017-12-20T16:25:31.790Z,95.41
2017-12-20T16:26:32.583Z,95.60
2017-12-20T16:28:24.805Z,95.41
2017-12-20T16:29:25.260Z,94.84
2017-12-20T16:31:19.065Z,95.31
2017-12-20T16:32:20.661Z,95.31
2017-12-20T16:34:11.747Z,94.84
2017-12-20T16:35:12.075Z,94.84
2017-12-20T16:37:07.409Z,94.93
2017-12-20T16:38:06.326Z,94.84
2017-12-20T16:40:00.262Z,95.50
2017-12-20T16:41:00.037Z,94.84
2017-12-20T16:42:54.516Z,95.03
2017-12-20T16:43:53.297Z,94.93
2017-12-20T16:45:46.964Z,94.84
2017-12-20T16:46:48.442Z,95.03
2017-12-20T16:48:41.762Z,95.41
2017-12-20T16:49:40.042Z,95.60
2017-12-20T16:51:34.887Z,95.41
2017-12-20T16:52:34.533Z,95.31
2017-12-20T16:54:26.352Z,95.31
2017-12-20T16:55:28.340Z,95.12
2017-12-20T16:57:19.333Z,95.50
2017-12-20T16:58:20.127Z,95.79
2017-12-20T17:00:12.542Z,95.31
2017-12-20T17:01:12.783Z,95.79
2017-12-20T17:03:05.718Z,95.41
2017-12-20T17:04:05.429Z,95.50
2017-12-20T17:06:01.386Z,95.60
2017-12-20T17:06:59.502Z,94.93
2017-12-20T17:09:03.665Z,95.22
2017-12-20T17:09:52.874Z,95.03
2017-12-20T17:11:44.353Z,94.93
2017-12-20T17:12:44.592Z,94.93
2017-12-20T17:14:37.347Z,95.03
2017-12-20T17:15:37.808Z,94.93
2017-12-20T17:17:30.792Z,95.41
2017-12-20T17:18:31.121Z,95.60
2017-12-20T17:20:24.490Z,95.31
2017-12-20T17:21:23.976Z,95.60
2017-12-20T17:23:17.739Z,95.41
2017-12-20T17:24:18.134Z,95.31
2017-12-20T17:26:12.782Z,95.50
2017-12-20T17:27:11.249Z,95.69
2017-12-20T17:29:05.881Z,95.60
2017-12-20T17:30:05.740Z,95.50
2017-12-20T17:31:57.495Z,95.69
2017-12-20T17:32:59.712Z,95.88
2017-12-20T17:34:53.720Z,95.69
2017-12-20T17:35:54.269Z,95.60
2017-12-20T17:37:47.540Z,95.88
2017-12-20T17:38:47.952Z,95.69
2017-12-20T17:40:41.763Z,95.60
2017-12-20T17:41:41.164Z,95.60
2017-12-20T17:43:34.332Z,95.69
2017-12-20T17:44:33.996Z,95.98
2017-12-20T17:46:26.314Z,96.08
2017-12-20T17:47:27.361Z,95.50
2017-12-20T17:49:18.856Z,95.41
2017-12-20T17:50:19.666Z,95.31
2017-12-20T17:52:14.912Z,95.50
2017-12-20T17:53:13.506Z,95.60
2017-12-20T17:55:06.352Z,94.93
2017-12-20T17:56:06.104Z,95.03
2017-12-20T17:57:59.604Z,94.84
2017-12-20T17:58:59.079Z,95.22
2017-12-20T18:00:52.223Z,95.60
2017-12-20T18:01:52.952Z,95.50
2017-12-20T18:03:49.559Z,95.79
2017-12-20T18:04:47.262Z,95.98
2017-12-20T18:06:39.642Z,95.69
2017-12-20T18:07:40.306Z,95.60
2017-12-20T18:09:33.123Z,95.98
2017-12-20T18:10:32.936Z,95.69
2017-12-20T18:12:25.622Z,95.69
2017-12-20T18:13:26.422Z,95.79
2017-12-20T18:15:18.330Z,95.98
2017-12-20T18:16:18.606Z,95.69
2017-12-20T18:18:11.555Z,95.41
2017-12-20T18:19:12.700Z,95.50
2017-12-20T18:21:06.535Z,95.98
2017-12-20T18:22:06.651Z,96.17
2017-12-20T18:23:59.838Z,96.26
2017-12-20T18:25:00.563Z,96.45
2017-12-20T18:26:52.414Z,96.08
2017-12-20T18:27:53.371Z,96.26
2017-12-20T18:29:45.640Z,96.08
2017-12-20T18:30:46.944Z,96.26
2017-12-20T18:32:37.861Z,95.98
2017-12-20T18:33:38.243Z,95.88
2017-12-20T18:35:30.047Z,96.36
2017-12-20T18:36:31.775Z,96.45
2017-12-20T18:38:24.097Z,95.69
2017-12-20T18:39:25.576Z,96.08
2017-12-20T18:41:17.625Z,96.36
2017-12-20T18:42:17.443Z,95.79
2017-12-20T18:44:10.433Z,95.69
2017-12-20T18:45:11.675Z,96.17